Time;durP1;ratioP1;P1;durP2;ratioP2;P2;SDS_P1;SDS_P2;PMS_P1;PMS_P2;Temp;Humidity;BMP_temperature;BMP_pressure;BME280_temperature;BME280_humidity;BME280_pressure;Samples;Min_cycle;Max_cycle;Signal;HPM_P1;HPM_P2
2022/08/23 00:02:08;;;;;;;8.77;3.77;;;24.80;59.00;;;;;;5031844;22;20596;-95
2022/08/23 00:04:39;;;;;;;7.47;3.30;;;24.80;58.60;;;;;;5016558;28;20201;-95
2022/08/23 00:07:09;;;;;;;9.97;4.30;;;24.80;58.50;;;;;;5015184;28;20657;-94
2022/08/23 00:09:38;;;;;;;9.43;3.63;;;24.80;58.50;;;;;;5013405;28;20231;-95
2022/08/23 00:12:11;;;;;;;6.00;3.20;;;24.70;58.40;;;;;;5011308;28;20216;-95
2022/08/23 00:14:41;;;;;;;7.77;3.40;;;24.60;58.70;;;;;;5016597;28;20431;-95
2022/08/23 00:17:10;;;;;;;6.93;3.77;;;24.60;58.80;;;;;;5018903;28;20209;-94
2022/08/23 00:19:42;;;;;;;9.77;4.00;;;24.60;58.70;;;;;;5017591;28;20203;-95
2022/08/23 00:22:10;;;;;;;11.43;4.87;;;24.60;58.70;;;;;;5015830;28;20214;-94
2022/08/23 00:24:39;;;;;;;8.73;3.47;;;24.50;58.90;;;;;;5022660;28;20192;-94
2022/08/23 00:27:09;;;;;;;12.63;4.70;;;24.40;59.20;;;;;;5033444;28;20269;-94
2022/08/23 00:29:41;;;;;;;7.97;3.53;;;24.40;59.80;;;;;;5034950;28;20235;-94
2022/08/23 00:32:17;;;;;;;9.87;4.23;;;24.40;59.20;;;;;;5031878;28;20203;-95
2022/08/23 00:34:51;;;;;;;8.23;3.10;;;24.40;59.40;;;;;;5007477;28;20174;-94
2022/08/23 00:37:18;;;;;;;8.33;3.63;;;24.30;59.30;;;;;;5013756;28;20181;-94
2022/08/23 00:39:52;;;;;;;11.60;4.37;;;24.30;59.10;;;;;;5021377;28;20200;-94
2022/08/23 00:48:28;;;;;;;6.00;2.83;;;24.30;59.10;;;;;;5016083;28;20711;-94
2022/08/23 00:51:03;;;;;;;6.17;3.17;;;24.20;59.10;;;;;;5014371;28;20265;-94
2022/08/23 00:53:34;;;;;;;8.77;3.93;;;24.10;59.30;;;;;;5013930;28;20259;-95
2022/08/23 00:56:08;;;;;;;8.77;3.87;;;24.10;59.40;;;;;;5012066;28;20211;-94
2022/08/23 00:58:36;;;;;;;8.07;3.50;;;24.10;59.40;;;;;;5012924;28;20208;-95
2022/08/23 01:01:05;;;;;;;9.07;3.80;;;24.10;59.50;;;;;;5013159;28;20659;-94
2022/08/23 01:03:39;;;;;;;10.10;4.07;;;24.10;59.60;;;;;;5015491;28;20200;-94
2022/08/23 01:06:32;;;;;;;8.50;3.80;;;24.00;60.00;;;;;;5012572;28;20231;-95
2022/08/23 01:09:13;;;;;;;8.90;3.73;;;24.00;59.90;;;;;;4994801;28;20216;-95
2022/08/23 01:12:05;;;;;;;13.00;5.27;;;23.90;60.00;;;;;;5006186;28;20270;-94
2022/08/23 01:14:41;;;;;;;6.50;3.00;;;23.90;60.00;;;;;;5022011;22;20298;-95
2022/08/23 01:17:16;;;;;;;9.27;3.90;;;23.90;60.00;;;;;;5014857;28;20189;-95
2022/08/23 01:20:08;;;;;;;8.00;4.10;;;23.80;60.20;;;;;;5014012;28;20589;-95
2022/08/23 01:25:11;;;;;;;13.07;5.07;;;23.80;60.20;;;;;;5164943;22;20327;-94
2022/08/23 01:27:41;;;;;;;7.63;3.63;;;23.70;60.20;;;;;;5029049;28;20729;-94
2022/08/23 01:30:32;;;;;;;6.83;3.53;;;23.70;60.20;;;;;;5021261;28;20271;-94
2022/08/23 01:33:02;;;;;;;8.93;3.57;;;23.70;60.90;;;;;;5034249;28;20253;-95
2022/08/23 01:35:38;;;;;;;9.17;4.17;;;23.60;60.10;;;;;;5033584;28;20236;-93
2022/08/23 01:38:08;;;;;;;9.73;4.33;;;23.60;60.70;;;;;;5039010;28;20208;-92
2022/08/23 01:40:40;;;;;;;7.83;3.80;;;23.60;60.60;;;;;;5036261;28;20258;-94
2022/08/23 01:43:17;;;;;;;10.23;4.37;;;23.50;60.70;;;;;;5034431;28;20211;-93
2022/08/23 01:45:44;;;;;;;8.17;3.87;;;23.50;60.90;;;;;;5020885;28;20204;-95
2022/08/23 01:48:13;;;;;;;7.43;3.50;;;23.50;60.40;;;;;;5017293;28;20211;-94
2022/08/23 01:50:40;;;;;;;11.03;4.57;;;23.40;60.50;;;;;;5035783;28;20224;-94
2022/08/23 01:53:07;;;;;;;11.07;4.50;;;23.40;60.50;;;;;;5035171;28;20228;-94
2022/08/23 01:55:35;;;;;;;8.67;4.27;;;23.40;60.80;;;;;;5021460;28;20202;-92
2022/08/23 01:58:09;;;;;;;12.53;4.57;;;23.40;60.70;;;;;;5027493;28;20229;-92
2022/08/23 02:00:39;;;;;;;8.60;3.70;;;23.40;61.90;;;;;;5020549;28;20610;-95
2022/08/23 02:03:11;;;;;;;9.40;4.07;;;23.30;61.00;;;;;;5019219;28;20263;-94
2022/08/23 02:05:41;;;;;;;10.67;3.47;;;23.30;61.60;;;;;;5006979;28;20206;-94
2022/08/23 02:10:56;;;;;;;6.60;3.63;;;23.20;61.50;;;;;;5028901;28;20208;-93
2022/08/23 02:13:25;;;;;;;7.33;3.37;;;23.20;61.50;;;;;;5017093;28;20233;-95
2022/08/23 02:15:53;;;;;;;8.93;4.20;;;23.20;61.50;;;;;;5006870;28;20621;-94
2022/08/23 02:18:21;;;;;;;7.83;3.40;;;23.20;61.50;;;;;;4997668;28;20657;-94
2022/08/23 02:20:50;;;;;;;5.73;3.20;;;23.10;61.70;;;;;;5008495;28;20236;-94
2022/08/23 02:23:19;;;;;;;7.40;3.63;;;23.10;61.90;;;;;;5017361;28;20197;-93
2022/08/23 02:25:47;;;;;;;9.27;4.03;;;23.10;61.90;;;;;;5022562;28;20226;-94
2022/08/23 02:28:14;;;;;;;9.63;4.10;;;23.10;62.20;;;;;;5017128;28;20244;-95
2022/08/23 02:30:45;;;;;;;9.30;4.43;;;23.10;62.20;;;;;;5016883;28;20264;-94
2022/08/23 02:33:13;;;;;;;7.10;3.93;;;23.00;62.10;;;;;;5017158;28;20267;-93
2022/08/23 02:35:41;;;;;;;7.00;3.87;;;23.00;62.10;;;;;;5016575;28;20234;-94
2022/08/23 02:38:12;;;;;;;8.27;4.30;;;23.00;62.20;;;;;;5016410;28;20210;-94
2022/08/23 02:40:41;;;;;;;9.50;4.50;;;23.00;62.50;;;;;;5009427;28;20216;-94
2022/08/23 02:43:11;;;;;;;11.20;4.10;;;23.00;62.40;;;;;;5016811;28;20210;-94
2022/08/23 02:45:45;;;;;;;10.53;4.40;;;23.00;62.70;;;;;;5017411;28;20197;-94
2022/08/23 02:48:13;;;;;;;11.67;4.77;;;22.90;63.10;;;;;;5032360;28;20189;-95
2022/08/23 02:50:41;;;;;;;5.73;3.20;;;22.90;62.60;;;;;;5041739;28;20233;-94
2022/08/23 02:53:08;;;;;;;8.40;4.13;;;22.90;62.90;;;;;;5037432;28;20224;-94
2022/08/23 02:55:38;;;;;;;8.20;3.90;;;22.90;62.90;;;;;;5017694;28;20190;-94
2022/08/23 02:58:07;;;;;;;8.17;4.07;;;22.90;63.10;;;;;;5017586;28;20205;-94
2022/08/23 03:00:34;;;;;;;9.07;4.53;;;22.90;63.10;;;;;;5017621;28;20241;-94
2022/08/23 03:03:06;;;;;;;11.40;4.87;;;22.90;63.10;;;;;;5016688;28;20214;-94
2022/08/23 03:05:36;;;;;;;9.37;4.60;;;22.90;63.20;;;;;;5017090;28;20569;-95
2022/08/23 03:08:04;;;;;;;8.33;4.30;;;22.90;63.10;;;;;;5016090;28;20202;-94
2022/08/23 03:10:32;;;;;;;8.43;4.20;;;22.90;63.10;;;;;;5016738;28;20210;-93
2022/08/23 03:13:01;;;;;;;9.70;4.83;;;22.90;63.10;;;;;;5020204;23;20240;-95
2022/08/23 03:15:29;;;;;;;11.80;4.87;;;22.90;63.40;;;;;;5017195;28;20215;-95
2022/08/23 03:18:00;;;;;;;9.47;4.27;;;22.80;63.20;;;;;;5016355;28;20249;-95
2022/08/23 03:20:33;;;;;;;10.03;4.53;;;22.80;63.60;;;;;;5017189;28;20311;-95
2022/08/23 03:23:00;;;;;;;9.90;4.90;;;22.80;63.90;;;;;;5028905;28;20224;-95
2022/08/23 03:25:28;;;;;;;10.43;4.63;;;22.80;63.50;;;;;;5033677;28;20719;-94
2022/08/23 03:27:55;;;;;;;11.63;5.60;;;22.70;63.60;;;;;;5015646;28;20278;-95
2022/08/23 03:30:23;;;;;;;9.80;4.50;;;22.80;63.80;;;;;;5010374;28;20658;-94
2022/08/23 03:32:50;;;;;;;11.70;5.10;;;22.80;63.80;;;;;;5012260;28;20263;-94
2022/08/23 03:35:19;;;;;;;8.50;4.57;;;22.70;63.70;;;;;;5020285;28;20764;-94
2022/08/23 03:37:52;;;;;;;10.77;5.07;;;22.80;64.00;;;;;;5036553;28;20258;-95
2022/08/23 03:40:21;;;;;;;8.97;4.17;;;22.80;64.40;;;;;;5028131;28;20620;-95
2022/08/23 03:42:50;;;;;;;9.67;4.97;;;22.80;64.10;;;;;;5015749;28;20219;-93
2022/08/23 03:45:19;;;;;;;7.67;4.70;;;22.80;64.30;;;;;;5015784;28;20284;-94
2022/08/23 03:47:46;;;;;;;9.57;4.70;;;22.80;64.40;;;;;;5015954;28;20198;-93
2022/08/23 03:50:15;;;;;;;9.73;4.53;;;22.80;64.40;;;;;;5015585;28;20630;-94
2022/08/23 03:52:43;;;;;;;13.17;5.00;;;22.70;64.40;;;;;;5016032;28;20221;-94
2022/08/23 03:55:15;;;;;;;12.37;6.03;;;22.80;64.50;;;;;;5014273;28;20280;-94
2022/08/23 03:57:42;;;;;;;11.93;5.10;;;22.80;64.60;;;;;;5011512;28;20215;-93
2022/08/23 04:00:11;;;;;;;12.07;5.77;;;22.80;64.40;;;;;;5006871;28;20208;-94
2022/08/23 04:02:41;;;;;;;9.43;5.07;;;22.70;64.50;;;;;;5011943;28;20222;-94
2022/08/23 04:07:41;;;;;;;9.83;5.27;;;22.80;64.80;;;;;;5076853;22;20274;-95
2022/08/23 04:10:14;;;;;;;13.37;5.67;;;22.70;64.40;;;;;;5074697;28;20206;-94
2022/08/23 04:12:42;;;;;;;14.17;6.33;;;22.80;64.70;;;;;;5067938;28;20275;-94
2022/08/23 04:15:10;;;;;;;9.00;5.03;;;22.70;64.30;;;;;;5054958;28;20860;-94
2022/08/23 04:17:37;;;;;;;11.27;5.40;;;22.80;64.50;;;;;;5054338;28;20196;-94
2022/08/23 04:20:06;;;;;;;9.70;5.33;;;22.80;64.40;;;;;;5068974;28;20262;-94
2022/08/23 04:22:33;;;;;;;12.27;6.13;;;22.80;64.60;;;;;;5076689;28;20196;-93
2022/08/23 04:25:07;;;;;;;12.10;6.20;;;22.70;64.40;;;;;;5074708;28;20214;-94
2022/08/23 04:27:40;;;;;;;11.90;5.47;;;22.80;65.00;;;;;;5090976;28;20205;-93
2022/08/23 04:30:18;;;;;;;8.37;4.83;;;22.70;64.80;;;;;;5083045;28;20200;-94
2022/08/23 04:32:52;;;;;;;8.33;5.03;;;22.80;65.00;;;;;;5080404;28;20274;-94
2022/08/23 04:35:25;;;;;;;9.27;4.73;;;22.80;64.90;;;;;;5058801;22;20229;-94
2022/08/23 04:38:07;;;;;;;8.90;5.03;;;22.70;64.80;;;;;;5053393;28;20198;-94
2022/08/23 04:43:35;;;;;;;6.70;4.67;;;22.70;64.70;;;;;;4997715;28;20645;-93
2022/08/23 04:46:09;;;;;;;10.73;5.80;;;22.70;64.90;;;;;;4994265;28;20250;-94
2022/08/23 04:48:36;;;;;;;12.63;5.90;;;22.70;65.00;;;;;;4993641;28;20217;-94
2022/08/23 04:51:04;;;;;;;8.20;4.53;;;22.70;64.90;;;;;;5031025;28;20238;-94
2022/08/23 04:53:34;;;;;;;9.47;5.10;;;22.70;65.00;;;;;;5070434;28;20582;-94
2022/08/23 04:56:01;;;;;;;13.43;6.10;;;22.60;65.00;;;;;;5073508;28;20284;-94
2022/08/23 04:58:28;;;;;;;8.43;4.97;;;22.60;65.00;;;;;;5072562;28;20290;-94
2022/08/23 05:00:58;;;;;;;15.73;6.90;;;22.60;65.10;;;;;;5081734;28;20209;-92
2022/08/23 05:03:33;;;;;;;6.53;4.70;;;22.60;65.50;;;;;;5065732;28;20207;-94
2022/08/23 05:06:06;;;;;;;9.47;5.10;;;22.60;65.40;;;;;;5060014;28;20290;-93
2022/08/23 05:08:34;;;;;;;10.70;5.10;;;22.60;65.70;;;;;;5053035;28;20726;-92
2022/08/23 05:11:01;;;;;;;12.43;6.03;;;22.60;65.50;;;;;;5068264;28;20866;-93
2022/08/23 05:13:30;;;;;;;11.87;5.83;;;22.60;66.00;;;;;;5051209;28;20192;-93
2022/08/23 05:16:01;;;;;;;11.63;5.50;;;22.60;65.50;;;;;;5058101;28;20227;-91
2022/08/23 05:18:29;;;;;;;16.10;7.07;;;22.60;65.70;;;;;;5070276;28;20192;-92
2022/08/23 05:21:00;;;;;;;10.83;5.43;;;22.50;65.60;;;;;;5068337;28;20287;-93
2022/08/23 05:24:00;;;;;;;8.40;4.90;;;22.60;66.00;;;;;;5060586;28;20239;-91
2022/08/23 05:26:27;;;;;;;10.33;5.40;;;22.60;66.50;;;;;;5051183;28;20196;-92
2022/08/23 05:28:54;;;;;;;9.90;5.57;;;22.50;65.80;;;;;;5052243;28;20237;-92
2022/08/23 05:31:28;;;;;;;11.60;5.10;;;22.50;66.10;;;;;;5065072;28;20208;-91
2022/08/23 05:33:55;;;;;;;8.93;4.87;;;22.50;66.30;;;;;;5057870;28;20235;-92
2022/08/23 05:36:23;;;;;;;9.17;5.30;;;22.50;66.20;;;;;;5066956;28;20226;-92
2022/08/23 05:38:52;;;;;;;8.63;4.87;;;22.50;66.40;;;;;;5058551;28;20740;-93
2022/08/23 05:41:20;;;;;;;9.73;5.67;;;22.50;66.50;;;;;;5052290;28;20200;-91
2022/08/23 05:43:51;;;;;;;8.17;4.63;;;22.50;66.60;;;;;;5054849;28;20548;-92
2022/08/23 05:46:21;;;;;;;9.97;5.83;;;22.50;66.90;;;;;;5067532;28;20257;-92
2022/08/23 05:48:51;;;;;;;8.23;5.13;;;22.60;66.80;;;;;;5058922;28;20208;-92
2022/08/23 05:51:22;;;;;;;13.13;6.10;;;22.60;66.90;;;;;;5052803;28;20209;-92
2022/08/23 05:53:52;;;;;;;8.73;5.30;;;22.60;66.90;;;;;;5056294;28;20608;-93
2022/08/23 05:56:21;;;;;;;10.37;5.53;;;22.60;66.90;;;;;;5061673;28;20286;-92
2022/08/23 05:58:51;;;;;;;12.53;5.97;;;22.60;66.90;;;;;;5052507;28;20356;-92
2022/08/23 06:01:20;;;;;;;8.20;5.00;;;22.60;67.10;;;;;;5054544;28;20270;-92
2022/08/23 06:03:53;;;;;;;8.30;5.03;;;22.70;67.30;;;;;;5063346;28;20204;-93
2022/08/23 06:06:21;;;;;;;9.33;5.67;;;22.70;67.50;;;;;;5060389;28;20198;-92
2022/08/23 06:08:49;;;;;;;10.20;5.77;;;22.70;67.20;;;;;;5075007;28;20201;-93
2022/08/23 06:11:23;;;;;;;9.07;5.60;;;22.70;67.40;;;;;;5076722;28;21007;-92
2022/08/23 06:13:53;;;;;;;11.33;6.50;;;22.70;67.80;;;;;;5080023;28;20197;-92
2022/08/23 06:16:25;;;;;;;10.53;5.53;;;22.80;67.70;;;;;;5083001;28;20239;-92
2022/08/23 06:18:54;;;;;;;13.00;6.60;;;22.70;67.70;;;;;;5077151;28;20253;-93
2022/08/23 06:21:24;;;;;;;12.63;6.37;;;22.80;67.80;;;;;;5067592;28;20294;-92
2022/08/23 06:23:52;;;;;;;15.23;7.43;;;22.80;67.70;;;;;;5068247;28;20204;-92
2022/08/23 06:26:22;;;;;;;12.10;6.23;;;22.90;67.80;;;;;;5067094;28;20293;-92
2022/08/23 06:28:52;;;;;;;11.20;6.20;;;22.90;67.90;;;;;;5069218;28;20223;-92
2022/08/23 06:34:04;;;;;;;12.40;6.27;;;23.00;67.80;;;;;;5073646;28;20242;-92
2022/08/23 06:36:31;;;;;;;11.17;6.20;;;23.00;67.60;;;;;;5073999;28;20712;-92
2022/08/23 06:38:58;;;;;;;11.67;5.30;;;23.10;67.60;;;;;;5071478;28;20233;-92
2022/08/23 06:41:27;;;;;;;10.30;6.13;;;23.10;67.40;;;;;;5068915;28;20201;-92
2022/08/23 06:43:56;;;;;;;14.13;6.03;;;23.10;67.50;;;;;;5053386;28;20188;-92
2022/08/23 06:46:26;;;;;;;10.73;5.90;;;23.20;67.70;;;;;;5053964;28;20208;-92
2022/08/23 06:48:54;;;;;;;16.63;6.07;;;23.20;67.60;;;;;;5094215;28;20198;-92
2022/08/23 06:51:27;;;;;;;10.63;5.43;;;23.30;67.70;;;;;;5093841;28;20199;-91
2022/08/23 06:53:57;;;;;;;9.27;5.17;;;23.40;68.10;;;;;;5089953;28;20352;-93
2022/08/23 06:56:29;;;;;;;13.00;6.13;;;23.40;67.90;;;;;;5069314;28;20215;-91
2022/08/23 06:58:58;;;;;;;8.50;5.37;;;23.40;68.00;;;;;;5053090;28;20200;-92
2022/08/23 07:01:31;;;;;;;9.70;5.43;;;23.50;67.90;;;;;;5058195;28;20203;-93
2022/08/23 07:04:00;;;;;;;13.53;6.77;;;23.50;68.10;;;;;;5070556;28;20210;-92
2022/08/23 07:06:30;;;;;;;9.17;5.00;;;23.60;68.00;;;;;;5053588;28;20543;-92
2022/08/23 07:08:58;;;;;;;7.97;4.63;;;23.60;68.00;;;;;;5065497;28;20308;-92
2022/08/23 07:11:30;;;;;;;9.03;5.07;;;23.70;68.10;;;;;;5073539;28;20300;-92
2022/08/23 07:13:59;;;;;;;8.47;4.97;;;23.80;68.20;;;;;;5059817;28;20192;-96
2022/08/23 07:16:34;;;;;;;11.40;5.17;;;23.80;68.20;;;;;;5059896;28;20680;-94
2022/08/23 07:19:01;;;;;;;10.17;4.60;;;23.90;68.70;;;;;;5056806;28;20211;-94
2022/08/23 07:21:30;;;;;;;12.40;5.33;;;23.90;68.30;;;;;;5056478;28;20204;-92
2022/08/23 07:24:00;;;;;;;16.53;6.10;;;24.00;68.70;;;;;;5051856;28;20250;-91
2022/08/23 07:26:27;;;;;;;11.03;6.03;;;24.00;68.80;;;;;;5052375;28;20202;-93
2022/08/23 07:28:55;;;;;;;10.97;4.93;;;24.10;69.00;;;;;;5052915;28;20211;-93
2022/08/23 07:31:27;;;;;;;10.33;5.03;;;24.10;69.20;;;;;;5053479;28;20199;-92
2022/08/23 07:33:55;;;;;;;12.37;5.63;;;24.20;69.50;;;;;;5068924;28;20206;-92
2022/08/23 07:36:26;;;;;;;13.53;6.47;;;24.30;69.30;;;;;;5072022;28;20269;-92
2022/08/23 07:38:59;;;;;;;11.87;5.43;;;24.30;69.40;;;;;;5072462;28;20195;-92
2022/08/23 07:41:29;;;;;;;14.00;6.13;;;24.40;69.70;;;;;;5073897;28;20234;-92
2022/08/23 07:44:02;;;;;;;11.47;5.43;;;24.40;69.40;;;;;;5073824;28;20227;-92
2022/08/23 07:46:30;;;;;;;11.30;6.03;;;24.60;69.80;;;;;;5085888;28;20261;-93
2022/08/23 07:49:00;;;;;;;9.90;5.13;;;24.60;69.50;;;;;;5073100;28;20214;-92
2022/08/23 07:51:31;;;;;;;10.13;4.77;;;24.70;69.60;;;;;;5074554;28;20277;-94
2022/08/23 07:54:04;;;;;;;10.70;5.57;;;24.70;69.70;;;;;;5076800;28;20203;-92
2022/08/23 07:56:32;;;;;;;10.90;5.47;;;24.80;69.60;;;;;;5073630;28;20312;-93
2022/08/23 07:59:00;;;;;;;10.17;5.13;;;24.90;69.50;;;;;;5074002;28;20545;-93
2022/08/23 08:01:29;;;;;;;14.97;6.67;;;24.90;69.40;;;;;;5069783;28;20273;-91
2022/08/23 08:04:05;;;;;;;10.23;4.87;;;25.00;69.50;;;;;;5066029;28;20199;-94
2022/08/23 08:06:35;;;;;;;9.67;4.77;;;25.10;69.60;;;;;;5051995;28;20622;-92
2022/08/23 08:09:06;;;;;;;7.67;3.93;;;25.20;69.80;;;;;;5052849;28;20569;-92
2022/08/23 08:11:35;;;;;;;8.83;3.93;;;25.20;69.70;;;;;;5052979;28;20227;-92
2022/08/23 08:14:05;;;;;;;13.23;4.80;;;25.30;69.60;;;;;;5060582;28;20204;-92
2022/08/23 08:16:35;;;;;;;11.17;4.60;;;25.40;69.60;;;;;;5073090;28;20216;-93
2022/08/23 08:19:30;;;;;;;7.37;3.67;;;25.50;69.60;;;;;;5078033;28;20179;-93
2022/08/23 08:22:11;;;;;;;5.87;2.77;;;25.60;70.00;;;;;;5077812;28;20216;-94
2022/08/23 08:24:40;;;;;;;7.23;3.53;;;25.70;70.00;;;;;;5076346;28;20211;-93
2022/08/23 08:27:09;;;;;;;6.30;3.13;;;25.70;69.70;;;;;;5074491;28;20246;-93
2022/08/23 08:29:37;;;;;;;7.47;3.17;;;25.80;69.60;;;;;;5073678;28;20211;-92
2022/08/23 08:32:06;;;;;;;7.50;3.17;;;25.90;69.60;;;;;;5072271;28;20227;-92
2022/08/23 08:34:33;;;;;;;5.93;3.00;;;25.90;69.60;;;;;;5073329;28;20227;-93
2022/08/23 08:37:01;;;;;;;5.17;2.40;;;26.00;69.50;;;;;;5061496;28;20254;-93
2022/08/23 08:39:30;;;;;;;7.17;2.83;;;26.00;69.30;;;;;;5051250;28;20569;-92
2022/08/23 08:42:19;;;;;;;8.00;3.63;;;26.10;69.60;;;;;;5052389;28;20299;-91
2022/08/23 08:44:51;;;;;;;5.13;2.47;;;26.10;69.70;;;;;;5063638;28;20195;-92
2022/08/23 08:47:25;;;;;;;5.73;2.47;;;26.20;69.50;;;;;;5073084;28;20207;-93
2022/08/23 08:49:57;;;;;;;5.87;2.63;;;26.20;69.30;;;;;;5071689;28;20298;-91
2022/08/23 08:52:28;;;;;;;8.47;3.30;;;26.30;69.50;;;;;;5054562;28;20273;-91
2022/08/23 08:55:05;;;;;;;7.90;2.90;;;26.30;69.30;;;;;;5051645;28;20200;-92
2022/08/23 08:57:38;;;;;;;6.13;3.07;;;26.40;69.50;;;;;;5066377;28;20294;-92
2022/08/23 09:00:09;;;;;;;5.53;2.60;;;26.40;69.10;;;;;;5073240;28;20663;-92
2022/08/23 09:02:38;;;;;;;8.90;3.40;;;26.50;69.00;;;;;;5071895;28;20856;-92
2022/08/23 09:05:10;;;;;;;7.40;3.27;;;26.60;68.90;;;;;;5071105;28;20204;-92
2022/08/23 09:07:50;;;;;;;11.27;4.00;;;26.50;69.40;;;;;;5049447;28;20236;-91
2022/08/23 09:10:47;;;;;;;7.33;3.43;;;26.60;68.60;;;;;;5059266;28;20663;-92
2022/08/23 09:13:43;;;;;;;8.30;3.60;;;26.70;68.70;;;;;;5064546;28;20227;-92
2022/08/23 09:16:21;;;;;;;6.83;3.30;;;26.80;68.60;;;;;;5069705;28;20223;-93
2022/08/23 09:18:49;;;;;;;7.77;3.37;;;26.80;68.50;;;;;;5069637;28;20617;-92
2022/08/23 09:21:17;;;;;;;8.13;3.43;;;26.90;68.70;;;;;;5068810;28;20284;-93
2022/08/23 09:23:50;;;;;;;7.53;3.03;;;26.90;68.90;;;;;;5071251;28;20203;-92
2022/08/23 09:26:22;;;;;;;7.00;3.27;;;27.10;68.90;;;;;;5085724;28;20190;-92
2022/08/23 09:28:54;;;;;;;4.50;2.17;;;27.20;68.50;;;;;;5077395;28;20223;-92
2022/08/23 09:31:41;;;;;;;6.87;2.77;;;27.30;68.00;;;;;;5072413;28;20243;-92
2022/08/23 09:34:09;;;;;;;5.33;2.57;;;27.40;67.60;;;;;;5068335;28;20184;-92
2022/08/23 09:36:39;;;;;;;4.60;2.27;;;27.50;67.50;;;;;;5071079;28;20599;-93
2022/08/23 09:39:23;;;;;;;4.23;2.30;;;27.60;67.10;;;;;;5067077;28;20751;-93
2022/08/23 09:41:52;;;;;;;7.77;2.83;;;27.80;67.40;;;;;;5068626;28;20187;-91
2022/08/23 09:44:38;;;;;;;6.40;2.77;;;27.90;67.50;;;;;;5070266;28;20255;-93
2022/08/23 09:47:10;;;;;;;4.30;2.27;;;28.00;67.00;;;;;;5072103;28;20223;-92
2022/08/23 09:49:39;;;;;;;4.17;2.13;;;28.10;66.70;;;;;;5072802;28;20199;-92
2022/08/23 09:52:21;;;;;;;3.70;1.83;;;28.20;66.50;;;;;;5069096;28;20243;-93
2022/08/23 09:55:01;;;;;;;7.93;3.53;;;28.40;65.30;;;;;;5059896;28;20214;-92
2022/08/23 09:57:31;;;;;;;5.37;2.13;;;28.50;64.80;;;;;;5069244;28;20224;-92
2022/08/23 10:00:18;;;;;;;5.27;2.63;;;28.60;64.90;;;;;;5068867;28;20364;-93
2022/08/23 10:02:47;;;;;;;5.47;2.33;;;28.70;64.30;;;;;;5067779;28;20207;-92
2022/08/23 10:05:20;;;;;;;4.07;2.13;;;28.80;64.10;;;;;;5078143;28;20273;-92
2022/08/23 10:07:55;;;;;;;5.20;2.33;;;28.80;63.10;;;;;;5077540;28;20274;-91
2022/08/23 10:10:31;;;;;;;4.57;2.23;;;28.90;62.70;;;;;;5062775;28;20291;-92
2022/08/23 10:12:58;;;;;;;6.03;2.70;;;28.90;62.10;;;;;;5055026;28;20609;-92
2022/08/23 10:15:40;;;;;;;3.33;1.77;;;28.80;62.10;;;;;;5056293;28;20204;-95
2022/08/23 10:18:15;;;;;;;5.23;2.17;;;28.80;62.10;;;;;;5067481;28;20207;-93
2022/08/23 10:20:51;;;;;;;6.27;2.90;;;28.70;62.10;;;;;;5060712;28;20208;-93
2022/08/23 10:23:32;;;;;;;5.97;2.70;;;28.70;62.30;;;;;;5052855;28;20269;-91
2022/08/23 10:26:00;;;;;;;8.07;3.30;;;28.60;62.10;;;;;;5052849;28;20265;-92
2022/08/23 10:31:41;;;;;;;7.80;3.27;;;28.60;62.50;;;;;;5056870;28;20211;-90
2022/08/23 10:34:23;;;;;;;9.73;4.03;;;28.60;62.50;;;;;;5050712;28;20211;-91
2022/08/23 10:37:00;;;;;;;6.83;3.10;;;28.60;63.20;;;;;;5050532;28;20408;-91
2022/08/23 10:39:29;;;;;;;10.03;4.10;;;28.50;62.40;;;;;;5050876;28;20684;-91
2022/08/23 10:42:03;;;;;;;9.83;4.17;;;28.50;62.40;;;;;;5059988;28;20196;-91
2022/08/23 10:44:35;;;;;;;7.27;3.30;;;28.50;62.50;;;;;;5060188;28;20208;-90
2022/08/23 10:47:18;;;;;;;9.00;3.70;;;28.40;62.30;;;;;;5067062;28;20334;-92
2022/08/23 10:49:52;;;;;;;8.13;3.60;;;28.40;62.40;;;;;;5049859;28;20258;-91
2022/08/23 10:52:23;;;;;;;7.13;3.23;;;28.40;62.30;;;;;;5058961;28;20695;-91
2022/08/23 10:55:05;;;;;;;6.77;2.90;;;28.40;62.40;;;;;;5067049;28;20211;-91
2022/08/23 10:57:36;;;;;;;7.40;3.00;;;28.40;62.50;;;;;;5062794;28;20317;-90
2022/08/23 11:00:07;;;;;;;9.80;4.23;;;28.40;62.70;;;;;;5063750;28;20213;-91
2022/08/23 11:02:44;;;;;;;6.20;2.77;;;28.40;62.90;;;;;;5068154;28;20199;-91
2022/08/23 11:05:19;;;;;;;6.10;2.87;;;28.50;62.40;;;;;;5068910;28;20203;-90
2022/08/23 11:08:00;;;;;;;6.80;2.90;;;28.60;62.40;;;;;;5052863;28;20204;-90
2022/08/23 11:10:33;;;;;;;6.87;3.03;;;28.60;62.20;;;;;;5050270;28;20200;-91
2022/08/23 11:13:06;;;;;;;7.67;3.17;;;28.60;62.10;;;;;;5051508;28;20295;-90
2022/08/23 11:15:42;;;;;;;7.03;2.90;;;28.70;61.20;;;;;;5069508;28;20203;-90
2022/08/23 11:18:31;;;;;;;6.70;2.77;;;28.70;60.70;;;;;;5057466;28;20629;-90
2022/08/23 11:21:07;;;;;;;8.40;3.00;;;28.80;61.20;;;;;;5048801;28;20598;-91
2022/08/23 11:23:52;;;;;;;5.27;2.40;;;28.90;61.30;;;;;;5056153;28;20209;-89
2022/08/23 11:27:06;;;;;;;4.87;2.43;;;28.90;61.00;;;;;;5061364;28;20200;-91
2022/08/23 11:29:36;;;;;;;6.20;2.77;;;29.00;61.50;;;;;;5047664;28;20228;-91
2022/08/23 11:32:21;;;;;;;11.43;3.93;;;29.10;61.10;;;;;;5048578;28;20386;-90
2022/08/23 11:34:55;;;;;;;6.67;2.80;;;29.20;60.90;;;;;;5044784;28;20218;-90
2022/08/23 11:37:29;;;;;;;6.57;3.03;;;29.30;60.60;;;;;;5057983;28;20314;-91
2022/08/23 11:40:06;;;;;;;11.13;4.00;;;29.40;60.20;;;;;;5062806;28;20199;-92
2022/08/23 11:42:50;;;;;;;6.57;3.03;;;29.50;59.80;;;;;;5081680;28;20199;-92
2022/08/23 11:45:24;;;;;;;5.10;2.03;;;29.60;59.50;;;;;;5054587;28;20239;-92
2022/08/23 11:48:07;;;;;;;6.07;2.47;;;29.70;59.40;;;;;;5068342;28;20952;-91
2022/08/23 11:50:46;;;;;;;5.30;2.43;;;29.80;59.00;;;;;;5053929;28;20772;-90
2022/08/23 11:53:34;;;;;;;5.67;2.57;;;29.90;58.90;;;;;;5068871;28;20298;-92
2022/08/23 11:56:26;;;;;;;6.17;2.77;;;30.00;58.30;;;;;;5059772;28;20204;-92
2022/08/23 11:59:14;;;;;;;8.43;3.57;;;30.10;58.30;;;;;;5057703;28;20736;-91
2022/08/23 12:01:42;;;;;;;4.40;2.23;;;30.20;57.80;;;;;;5052480;28;20220;-90
2022/08/23 12:04:13;;;;;;;6.63;2.97;;;30.30;58.20;;;;;;5062017;28;20718;-91
2022/08/23 12:06:48;;;;;;;5.53;2.40;;;30.40;57.70;;;;;;5055074;28;20250;-91
2022/08/23 12:10:03;;;;;;;6.53;2.80;;;30.40;56.90;;;;;;5073708;28;20218;-91
2022/08/23 12:12:34;;;;;;;5.50;2.27;;;30.60;56.60;;;;;;4992891;28;20341;-92
2022/08/23 12:15:05;;;;;;;5.80;2.50;;;30.70;56.90;;;;;;4996167;28;20248;-91
2022/08/23 12:17:55;;;;;;;5.03;2.27;;;30.80;56.80;;;;;;5024454;28;20235;-91
2022/08/23 12:20:28;;;;;;;6.95;3.08;;;30.90;55.60;;;;;;5049535;28;20197;-91
2022/08/23 12:23:06;;;;;;;5.80;2.50;;;31.10;55.90;;;;;;5057021;28;20204;-91
2022/08/23 12:25:34;;;;;;;6.35;3.00;;;31.20;55.30;;;;;;5062452;28;20203;-89
2022/08/23 12:28:10;;;;;;;5.50;2.65;;;31.30;56.10;;;;;;5053034;28;20563;-91
2022/08/23 12:30:49;;;;;;;5.82;2.92;;;31.40;55.30;;;;;;5085699;28;20195;-91
2022/08/23 12:33:26;;;;;;;7.35;3.45;;;31.60;55.20;;;;;;5066441;28;20236;-90
2022/08/23 12:36:04;;;;;;;4.50;2.28;;;31.70;54.80;;;;;;5063409;28;20250;-91
2022/08/23 12:38:53;;;;;;;5.38;2.47;;;31.80;54.50;;;;;;5076029;28;20211;-91
2022/08/23 12:41:28;;;;;;;5.15;2.60;;;31.90;54.10;;;;;;5070122;28;20544;-89
2022/08/23 12:43:59;;;;;;;5.60;2.95;;;32.00;54.20;;;;;;5076139;28;20203;-90
2022/08/23 12:46:32;;;;;;;7.22;3.33;;;32.10;54.40;;;;;;5059630;28;20207;-93
2022/08/23 12:49:08;;;;;;;4.55;2.55;;;32.20;54.00;;;;;;5053813;28;20641;-91
2022/08/23 12:51:41;;;;;;;4.70;2.42;;;32.30;53.70;;;;;;5059274;28;20212;-93
2022/08/23 12:54:31;;;;;;;4.70;2.42;;;32.30;53.10;;;;;;5049945;28;20204;-91
2022/08/23 12:57:00;;;;;;;7.28;3.58;;;32.30;52.60;;;;;;5056385;28;20255;-91
2022/08/23 12:59:37;;;;;;;7.78;3.20;;;32.40;54.10;;;;;;5059371;28;20199;-92
2022/08/23 13:02:11;;;;;;;3.35;2.00;;;32.40;53.70;;;;;;5064555;28;20207;-91
2022/08/23 13:04:41;;;;;;;5.68;3.08;;;32.40;54.00;;;;;;5051924;28;20214;-94
2022/08/23 13:07:18;;;;;;;7.57;3.90;;;32.50;54.30;;;;;;5055230;28;20197;-92
2022/08/23 13:09:47;;;;;;;8.18;3.95;;;32.50;54.10;;;;;;5048583;28;20239;-91
2022/08/23 13:12:18;;;;;;;5.97;2.92;;;32.40;54.40;;;;;;5051071;28;20291;-94
2022/08/23 13:14:47;;;;;;;4.20;2.33;;;32.50;54.40;;;;;;5067975;28;20235;-94
2022/08/23 13:17:30;;;;;;;7.30;3.50;;;32.60;54.40;;;;;;5052726;28;20260;-93
2022/08/23 13:20:17;;;;;;;4.85;2.55;;;32.60;53.80;;;;;;5071902;28;20638;-94
2022/08/23 13:22:57;;;;;;;4.40;2.40;;;32.60;53.70;;;;;;5053766;28;20264;-93
2022/08/23 13:25:29;;;;;;;7.10;2.90;;;32.70;53.40;;;;;;5069689;28;20253;-92
2022/08/23 13:27:58;;;;;;;5.65;2.28;;;32.70;53.60;;;;;;5072706;28;20211;-93
2022/08/23 13:30:29;;;;;;;6.47;3.20;;;32.80;53.50;;;;;;5049950;28;20211;-91
2022/08/23 13:33:18;;;;;;;5.60;2.70;;;32.70;52.60;;;;;;5050551;28;20200;-93
2022/08/23 13:35:46;;;;;;;4.85;2.50;;;32.80;52.00;;;;;;5051637;28;20239;-93